Time;durP1;ratioP1;P1;durP2;ratioP2;P2;SDS_P1;SDS_P2;PMS_P1;PMS_P2;Temp;Humidity;BMP_temperature;BMP_pressure;BME280_temperature;BME280_humidity;BME280_pressure;Samples;Min_cycle;Max_cycle;Signal;HPM_P1;HPM_P2
2022/12/20 00:02:09;;;;;;;6.22;3.60;;;;;;;13.11;34.25;100453.94;6014526;23;20021;-86
2022/12/20 00:04:35;;;;;;;6.00;3.55;;;;;;;13.13;34.25;100468.81;6037973;23;20086;-86
2022/12/20 00:07:00;;;;;;;6.13;3.30;;;;;;;13.06;34.36;100453.72;6012914;23;20042;-86
2022/12/20 00:09:26;;;;;;;6.60;3.17;;;;;;;13.08;34.60;100459.72;6035855;23;20373;-86
2022/12/20 00:11:51;;;;;;;5.60;3.38;;;;;;;13.08;34.45;100446.31;6036800;23;20471;-86
2022/12/20 00:14:17;;;;;;;6.28;3.58;;;;;;;13.16;34.32;100456.84;6034695;23;20058;-86
2022/12/20 00:16:43;;;;;;;6.28;3.63;;;;;;;13.17;34.58;100442.38;6037096;23;20019;-86
2022/12/20 00:19:09;;;;;;;7.15;3.95;;;;;;;13.10;34.27;100438.88;6035804;23;20081;-86
2022/12/20 00:21:34;;;;;;;6.28;3.33;;;;;;;13.16;34.38;100440.75;6038013;23;20003;-86
2022/12/20 00:24:00;;;;;;;6.43;3.53;;;;;;;13.06;34.67;100429.59;6036348;23;20037;-86
2022/12/20 00:26:28;;;;;;;7.18;4.07;;;;;;;13.03;34.47;100429.97;6038043;23;20341;-86
2022/12/20 00:28:53;;;;;;;7.10;4.05;;;;;;;13.10;34.43;100430.81;6037134;23;20384;-86
2022/12/20 00:31:20;;;;;;;8.85;4.15;;;;;;;13.02;34.69;100420.28;6038071;23;19998;-86
2022/12/20 00:33:46;;;;;;;7.00;3.95;;;;;;;13.06;34.62;100430.41;6036041;23;20011;-86
2022/12/20 00:36:12;;;;;;;7.53;3.97;;;;;;;13.10;34.56;100422.78;6037914;23;20006;-86
2022/12/20 00:38:38;;;;;;;7.65;4.10;;;;;;;13.10;34.27;100428.97;6013807;23;20010;-86
2022/12/20 00:41:10;;;;;;;8.55;4.35;;;;;;;13.14;34.26;100432.06;6036717;23;20013;-86
2022/12/20 00:43:36;;;;;;;7.18;4.05;;;;;;;13.13;34.64;100430.41;6036178;23;20090;-86
2022/12/20 00:46:02;;;;;;;7.95;4.13;;;;;;;13.03;34.54;100411.19;6014082;23;20093;-86
2022/12/20 00:48:28;;;;;;;7.78;4.25;;;;;;;13.05;34.49;100409.13;6037055;23;20011;-86
2022/12/20 00:51:00;;;;;;;6.68;4.20;;;;;;;13.09;34.49;100413.06;6036927;23;20011;-86
2022/12/20 00:53:27;;;;;;;7.00;4.47;;;;;;;13.02;34.32;100390.75;6034737;23;20484;-86
2022/12/20 00:55:52;;;;;;;7.43;4.15;;;;;;;13.12;34.37;100407.28;6013852;23;20046;-85
2022/12/20 00:58:18;;;;;;;7.43;4.07;;;;;;;13.07;34.35;100394.50;6013711;23;20034;-86
2022/12/20 01:00:43;;;;;;;7.40;4.07;;;;;;;13.01;34.96;100400.66;6012328;23;20013;-86
2022/12/20 01:03:09;;;;;;;8.15;4.53;;;;;;;13.08;34.65;100401.50;6012724;23;20439;-86
2022/12/20 01:05:35;;;;;;;9.15;4.60;;;;;;;13.10;34.74;100391.38;6037678;23;20498;-86
2022/12/20 01:08:00;;;;;;;7.70;4.47;;;;;;;13.13;34.34;100392.84;6014956;23;20011;-86
2022/12/20 01:10:29;;;;;;;7.72;4.43;;;;;;;13.12;34.54;100385.81;6037310;23;20420;-86
2022/12/20 01:12:55;;;;;;;7.05;4.28;;;;;;;13.17;34.48;100387.91;6036128;23;20010;-86
2022/12/20 01:15:21;;;;;;;8.73;4.75;;;;;;;13.08;34.57;100369.31;6038213;23;20086;-86
2022/12/20 01:17:48;;;;;;;8.68;4.32;;;;;;;13.07;34.77;100372.19;6037237;23;20019;-86
2022/12/20 01:20:14;;;;;;;8.60;3.95;;;;;;;13.00;34.80;100360.63;6013246;23;20459;-86
2022/12/20 01:22:41;;;;;;;8.32;4.32;;;;;;;13.03;34.93;100361.03;6036763;23;20007;-86
2022/12/20 01:25:07;;;;;;;8.15;4.18;;;;;;;13.10;34.49;100351.16;6038458;23;20452;-86
2022/12/20 01:27:32;;;;;;;8.20;4.72;;;;;;;13.13;34.47;100366.03;6036198;23;20090;-86
2022/12/20 01:29:58;;;;;;;7.03;4.03;;;;;;;13.10;34.17;100356.50;6036491;23;20097;-86
2022/12/20 01:32:24;;;;;;;7.22;4.22;;;;;;;13.03;34.25;100338.75;6037446;23;20094;-85
2022/12/20 01:34:49;;;;;;;8.63;4.38;;;;;;;13.14;34.57;100356.91;6013272;23;20093;-86
2022/12/20 01:37:15;;;;;;;7.53;4.18;;;;;;;13.00;34.79;100328.44;6037901;23;20078;-86
2022/12/20 01:39:40;;;;;;;8.30;4.50;;;;;;;13.06;34.74;100333.81;6035395;23;20017;-86
2022/12/20 01:42:08;;;;;;;8.63;4.95;;;;;;;13.14;34.45;100336.31;6037315;23;20057;-86
2022/12/20 01:44:34;;;;;;;9.38;4.53;;;;;;;13.19;34.43;100338.34;6012122;23;20015;-86
2022/12/20 01:46:59;;;;;;;8.32;4.40;;;;;;;13.17;34.40;100331.56;6059860;23;20075;-86
2022/12/20 01:49:29;;;;;;;7.85;4.55;;;;;;;13.15;34.54;100323.69;6036326;23;20492;-85
2022/12/20 01:51:59;;;;;;;8.38;4.70;;;;;;;13.13;34.46;100318.53;6037440;23;20006;-86
2022/12/20 01:54:36;;;;;;;10.00;5.43;;;;;;;13.03;34.59;100311.94;6037653;23;20014;-86
2022/12/20 01:57:03;;;;;;;7.18;4.50;;;;;;;13.02;34.32;100304.91;6041738;23;20802;-86
2022/12/20 01:59:29;;;;;;;9.80;4.78;;;;;;;13.01;34.60;100297.91;6041387;23;20508;-86
2022/12/20 02:01:58;;;;;;;7.40;4.28;;;;;;;13.17;34.55;100313.59;6068398;23;19999;-86
2022/12/20 02:04:24;;;;;;;9.07;4.53;;;;;;;13.06;34.49;100301.63;6044296;23;20041;-86
2022/12/20 02:06:49;;;;;;;8.05;4.70;;;;;;;13.08;34.61;100304.91;6043893;23;20003;-86
2022/12/20 02:09:15;;;;;;;9.18;5.28;;;;;;;13.10;34.41;100299.34;6066875;23;20061;-86
2022/12/20 02:12:02;;;;;;;7.40;4.45;;;;;;;13.14;34.77;100311.31;6044840;23;20045;-86
2022/12/20 02:14:53;;;;;;;8.57;4.70;;;;;;;13.15;34.73;100310.28;6092942;23;20683;-86
2022/12/20 02:17:19;;;;;;;8.80;4.95;;;;;;;13.17;34.68;100316.25;6043309;23;20314;-86
2022/12/20 02:20:22;;;;;;;8.85;5.05;;;;;;;13.21;34.58;100306.78;6067728;23;20103;-86
2022/12/20 02:23:06;;;;;;;10.02;4.90;;;;;;;13.17;34.36;100297.47;6091749;23;20010;-86
2022/12/20 02:25:41;;;;;;;9.02;5.00;;;;;;;13.17;34.68;100286.75;6094142;23;20436;-86
2022/12/20 02:28:13;;;;;;;8.75;5.20;;;;;;;13.14;34.57;100282.63;6088708;23;20003;-86
2022/12/20 02:30:40;;;;;;;9.43;5.40;;;;;;;13.06;34.59;100274.78;6092148;23;20010;-86
2022/12/20 02:33:07;;;;;;;8.98;5.38;;;;;;;13.06;34.77;100268.59;6020378;23;20380;-86
2022/12/20 02:35:34;;;;;;;9.27;4.97;;;;;;;13.10;34.71;100276.00;6020335;23;20002;-86
2022/12/20 02:38:03;;;;;;;8.43;5.00;;;;;;;13.14;34.47;100260.31;6018987;23;20010;-86
2022/12/20 02:40:40;;;;;;;8.25;4.80;;;;;;;13.14;34.62;100268.38;6043574;23;20056;-86
2022/12/20 02:45:14;;;;;;;10.35;5.55;;;;;;;13.14;34.61;100263.84;6044219;23;20010;-86
2022/12/20 02:45:52;;;;;;;7.30;4.68;;;;;;;13.05;34.50;100240.94;6051686;23;20378;-86
2022/12/20 02:48:18;;;;;;;7.05;4.32;;;;;;;13.13;34.69;100264.06;6042957;23;20038;-86
2022/12/20 02:50:49;;;;;;;11.02;5.72;;;;;;;13.08;34.41;100250.44;6043001;23;20007;-86
2022/12/20 02:53:18;;;;;;;9.98;5.68;;;;;;;13.13;34.54;100253.31;6043792;23;20017;-86
2022/12/20 02:56:04;;;;;;;10.32;5.35;;;;;;;13.13;34.38;100243.41;6017029;23;20463;-86
2022/12/20 02:58:54;;;;;;;9.32;5.07;;;;;;;13.17;34.38;100243.81;6043008;23;20014;-86
2022/12/20 03:01:25;;;;;;;10.57;5.30;;;;;;;13.14;34.48;100233.50;6067404;23;20094;-86
2022/12/20 03:03:51;;;;;;;8.85;5.43;;;;;;;13.09;34.39;100233.28;6042772;23;20011;-86
2022/12/20 03:06:17;;;;;;;10.10;5.80;;;;;;;13.04;34.85;100233.09;6042628;23;20013;-86
2022/12/20 03:08:42;;;;;;;11.13;5.50;;;;;;;13.08;34.60;100234.34;6019359;23;20002;-86
2022/12/20 03:11:08;;;;;;;7.25;4.95;;;;;;;13.08;34.63;100237.03;6067278;23;20081;-86
2022/12/20 03:13:34;;;;;;;9.27;5.25;;;;;;;13.13;34.43;100234.53;6042685;23;20097;-86
2022/12/20 03:15:59;;;;;;;9.85;5.85;;;;;;;13.17;34.31;100243.00;6066044;23;20439;-86
2022/12/20 03:18:25;;;;;;;11.27;5.75;;;;;;;13.16;34.24;100236.81;6043417;23;20069;-86
2022/12/20 03:20:50;;;;;;;10.38;5.78;;;;;;;13.15;34.28;100229.78;6066194;23;20073;-86
2022/12/20 03:23:16;;;;;;;10.07;5.28;;;;;;;13.09;34.49;100230.59;6042724;23;20029;-86
2022/12/20 03:25:42;;;;;;;10.32;6.03;;;;;;;13.12;34.68;100230.19;6018341;23;20010;-86
2022/12/20 03:28:08;;;;;;;10.90;5.57;;;;;;;13.09;34.61;100219.88;6043336;23;20010;-86
2022/12/20 03:30:35;;;;;;;11.20;5.63;;;;;;;13.14;34.62;100218.25;6067840;23;20029;-86
2022/12/20 03:33:01;;;;;;;10.05;6.20;;;;;;;13.19;34.17;100214.91;6043757;23;20502;-86
2022/12/20 03:35:27;;;;;;;8.73;5.43;;;;;;;13.14;34.55;100210.19;6039600;23;20073;-86
2022/12/20 03:37:52;;;;;;;9.60;5.88;;;;;;;13.10;34.21;100189.34;6067139;23;20038;-86
2022/12/20 03:40:18;;;;;;;10.60;5.85;;;;;;;13.04;34.55;100192.84;6042701;23;20010;-86
2022/12/20 03:42:44;;;;;;;8.13;5.10;;;;;;;13.05;34.83;100194.50;6042669;23;20010;-86
2022/12/20 03:45:10;;;;;;;11.20;5.70;;;;;;;13.00;34.86;100176.34;6066289;23;20014;-86
2022/12/20 03:47:35;;;;;;;9.32;5.32;;;;;;;13.05;34.58;100176.53;6019531;23;20037;-86
2022/12/20 03:50:01;;;;;;;9.05;5.35;;;;;;;13.10;34.48;100190.16;6042707;23;20088;-86
2022/12/20 03:52:26;;;;;;;9.88;5.20;;;;;;;13.10;34.62;100184.78;6064982;23;20511;-86
2022/12/20 03:54:52;;;;;;;9.13;5.40;;;;;;;13.15;34.58;100181.50;6066206;23;20097;-86
2022/12/20 03:57:18;;;;;;;9.48;5.53;;;;;;;13.15;34.60;100182.31;6037903;23;20031;-86
2022/12/20 03:59:43;;;;;;;9.88;6.03;;;;;;;13.12;34.59;100171.16;6038180;23;20063;-86
2022/12/20 04:02:09;;;;;;;9.52;5.32;;;;;;;13.07;34.51;100163.78;6059998;23;20041;-86
2022/12/20 04:04:35;;;;;;;11.30;5.90;;;;;;;13.03;34.45;100159.03;6038172;23;20355;-86
2022/12/20 04:07:00;;;;;;;8.23;5.10;;;;;;;13.09;34.66;100158.16;6036633;23;20043;-86
2022/12/20 04:09:26;;;;;;;12.82;5.90;;;;;;;13.19;34.23;100166.59;6037034;23;20127;-86
2022/12/20 04:11:51;;;;;;;10.10;5.20;;;;;;;13.14;34.47;100147.63;6032888;23;20021;-86
2022/12/20 04:14:17;;;;;;;11.95;6.28;;;;;;;13.18;34.50;100154.25;6036642;23;20082;-86
2022/12/20 04:16:43;;;;;;;10.07;6.10;;;;;;;13.18;34.67;100154.25;6036661;23;20104;-86
2022/12/20 04:19:08;;;;;;;11.25;5.88;;;;;;;13.14;34.56;100144.94;6037031;23;20007;-86
2022/12/20 04:21:34;;;;;;;10.95;6.10;;;;;;;13.15;34.46;100141.25;6036768;23;20014;-86
2022/12/20 04:24:01;;;;;;;12.20;6.30;;;;;;;13.12;34.72;100133.59;6037380;23;20007;-86
2022/12/20 04:26:29;;;;;;;9.35;5.80;;;;;;;13.13;34.38;100130.72;6036723;23;20508;-86
2022/12/20 04:28:55;;;;;;;10.02;5.53;;;;;;;13.12;34.18;100128.25;6037046;23;19999;-85
2022/12/20 04:31:20;;;;;;;12.32;6.32;;;;;;;13.14;34.16;100136.91;6037212;23;20006;-86
2022/12/20 04:33:47;;;;;;;10.52;5.90;;;;;;;13.12;34.10;100123.72;6013136;23;20090;-86
2022/12/20 04:36:16;;;;;;;11.15;6.13;;;;;;;12.98;34.51;100110.53;6037370;23;20015;-86
2022/12/20 04:38:44;;;;;;;12.20;6.63;;;;;;;13.13;34.51;100119.16;6037037;23;20623;-86
2022/12/20 04:41:20;;;;;;;9.55;5.53;;;;;;;13.05;34.25;100105.97;6036586;23;20091;-86
2022/12/20 04:43:51;;;;;;;9.75;5.80;;;;;;;13.21;34.35;100123.47;6040558;23;20139;-86
2022/12/20 04:46:17;;;;;;;9.82;5.88;;;;;;;13.11;34.27;100099.78;6013479;23;20070;-86
2022/12/20 04:48:43;;;;;;;10.13;6.03;;;;;;;13.06;34.55;100094.22;6012096;23;20042;-86
2022/12/20 04:51:08;;;;;;;12.23;6.22;;;;;;;13.06;34.39;100091.53;6037451;23;20010;-86
2022/12/20 04:53:46;;;;;;;11.40;5.75;;;;;;;13.07;34.38;100098.53;6037187;23;20013;-86
2022/12/20 04:56:19;;;;;;;10.63;6.13;;;;;;;13.10;34.36;100104.31;6035984;23;20377;-86
2022/12/20 04:58:46;;;;;;;8.82;5.60;;;;;;;13.07;34.89;100101.22;6037678;23;20006;-86
2022/12/20 05:01:11;;;;;;;8.85;5.40;;;;;;;13.12;34.45;100096.03;6036076;23;20530;-86
2022/12/20 05:03:37;;;;;;;12.02;6.18;;;;;;;13.14;34.41;100096.66;6036738;23;20003;-86
2022/12/20 05:06:03;;;;;;;10.77;5.55;;;;;;;13.15;34.22;100095.63;6036469;23;20010;-86
2022/12/20 05:08:29;;;;;;;11.32;5.82;;;;;;;13.13;34.24;100097.69;6036699;23;20031;-86
2022/12/20 05:10:54;;;;;;;9.48;5.70;;;;;;;13.09;34.52;100088.41;6034869;23;20340;-86
2022/12/20 05:13:20;;;;;;;10.45;5.47;;;;;;;13.10;34.51;100090.06;6036655;23;20451;-86
2022/12/20 05:15:49;;;;;;;9.75;5.28;;;;;;;13.08;34.68;100084.91;6036752;23;20073;-85
2022/12/20 05:18:15;;;;;;;9.27;5.40;;;;;;;13.03;34.63;100075.84;6037303;23;20436;-86
2022/12/20 05:20:41;;;;;;;10.73;5.82;;;;;;;13.07;34.34;100087.81;6034620;23;20073;-85
2022/12/20 05:28:37;;;;;;;;;;;;;;;13.17;34.53;100100.78;6038251;23;20026;-86
2022/12/20 05:31:05;;;;;;;9.77;5.85;;;;;;;13.13;35.11;100097.69;6060097;23;19914;-86
2022/12/20 05:33:31;;;;;;;10.40;5.97;;;;;;;12.99;34.57;100082.66;6036383;23;20003;-85
2022/12/20 05:35:57;;;;;;;11.68;6.30;;;;;;;13.16;34.30;100099.97;6037186;23;20106;-86
2022/12/20 05:38:23;;;;;;;10.70;5.85;;;;;;;13.15;34.44;100096.44;6035997;23;20026;-85
2022/12/20 05:40:48;;;;;;;9.85;5.65;;;;;;;13.17;34.39;100092.75;6035953;23;20050;-85
2022/12/20 05:43:15;;;;;;;10.55;5.75;;;;;;;13.11;34.47;100078.31;6034240;23;20009;-86
2022/12/20 05:45:47;;;;;;;10.75;6.07;;;;;;;13.18;34.38;100089.84;6034717;23;20082;-86
2022/12/20 05:48:13;;;;;;;10.65;6.15;;;;;;;13.10;34.56;100084.72;6034088;23;20199;-86
2022/12/20 05:50:45;;;;;;;9.63;5.70;;;;;;;13.10;34.34;100092.75;6035075;23;20066;-86
2022/12/20 05:53:15;;;;;;;9.60;5.60;;;;;;;13.17;34.35;100090.06;6034862;23;20062;-86
2022/12/20 05:55:47;;;;;;;10.20;6.07;;;;;;;13.12;34.19;100080.78;6014039;23;20015;-86
2022/12/20 05:58:16;;;;;;;9.50;5.68;;;;;;;13.19;34.13;100090.66;6035866;23;20069;-85
2022/12/20 06:00:42;;;;;;;10.40;6.03;;;;;;;13.14;34.42;100088.59;6063149;23;20013;-86
2022/12/20 06:03:08;;;;;;;9.70;5.97;;;;;;;13.00;34.49;100060.19;6063337;23;20340;-86
2022/12/20 06:05:35;;;;;;;10.30;5.90;;;;;;;13.09;34.50;100075.84;6038756;23;20081;-86
2022/12/20 06:08:02;;;;;;;10.02;6.00;;;;;;;13.07;34.27;100077.06;6036273;23;20029;-86
2022/12/20 06:10:28;;;;;;;10.05;5.68;;;;;;;13.13;34.42;100079.75;6038662;23;20002;-86
2022/12/20 06:12:53;;;;;;;8.32;5.50;;;;;;;13.16;34.52;100075.81;6037953;23;20003;-85
2022/12/20 06:15:19;;;;;;;9.18;5.57;;;;;;;13.18;34.50;100071.06;6038912;23;20014;-86
2022/12/20 06:17:45;;;;;;;10.07;5.97;;;;;;;13.13;34.24;100068.19;6061234;23;20435;-86
2022/12/20 06:20:11;;;;;;;12.70;6.25;;;;;;;13.13;34.27;100065.50;6040906;23;20389;-85
2022/12/20 06:22:37;;;;;;;10.13;6.00;;;;;;;13.17;34.50;100082.81;6065538;23;20034;-85
2022/12/20 06:25:03;;;;;;;9.20;5.68;;;;;;;13.12;34.42;100072.75;6017363;23;20010;-86
2022/12/20 06:27:29;;;;;;;8.93;5.80;;;;;;;13.06;34.45;100060.16;6039511;23;20010;-86
2022/12/20 06:29:55;;;;;;;9.05;5.53;;;;;;;13.07;33.96;100043.03;6041871;23;20002;-86
2022/12/20 06:32:20;;;;;;;9.55;5.82;;;;;;;13.12;34.15;100055.81;6063025;23;20109;-86
2022/12/20 06:34:46;;;;;;;13.15;5.72;;;;;;;13.16;34.13;100057.03;6063421;23;20033;-86
2022/12/20 06:37:11;;;;;;;10.15;5.90;;;;;;;13.07;34.08;100032.31;6065118;23;20410;-86
2022/12/20 06:39:37;;;;;;;11.75;5.75;;;;;;;13.14;34.29;100040.31;6064981;23;20129;-86
2022/12/20 06:42:03;;;;;;;11.52;6.13;;;;;;;13.07;34.73;100036.84;6065035;23;20010;-85
2022/12/20 06:44:29;;;;;;;11.15;6.10;;;;;;;13.09;34.47;100048.16;6040074;23;20002;-85
2022/12/20 06:46:54;;;;;;;10.93;5.88;;;;;;;13.23;34.17;100065.88;6018980;23;20013;-85
2022/12/20 06:49:21;;;;;;;10.15;5.80;;;;;;;13.20;34.26;100060.94;6019176;23;20085;-85
2022/12/20 06:51:47;;;;;;;13.43;6.90;;;;;;;13.18;33.99;100046.91;6067027;23;20014;-85
2022/12/20 06:54:12;;;;;;;12.20;6.80;;;;;;;13.15;34.26;100039.28;6064492;23;20017;-86
2022/12/20 06:56:38;;;;;;;9.88;5.95;;;;;;;13.13;34.31;100044.03;6061541;23;20023;-85
2022/12/20 06:59:04;;;;;;;10.27;6.15;;;;;;;13.10;34.50;100044.47;6037906;23;20014;-86
2022/12/20 07:01:30;;;;;;;10.93;6.30;;;;;;;13.08;34.40;100028.56;6037783;23;20007;-85
2022/12/20 07:03:55;;;;;;;11.93;6.63;;;;;;;13.12;34.14;100028.97;6034993;23;20112;-86
2022/12/20 07:06:21;;;;;;;11.68;6.60;;;;;;;13.23;34.09;100038.19;6038454;23;20099;-86
2022/12/20 07:08:47;;;;;;;10.38;5.95;;;;;;;13.20;34.18;100034.09;6037673;23;20085;-86
2022/12/20 07:11:12;;;;;;;11.05;6.50;;;;;;;13.16;34.10;100030.22;6038514;23;20014;-86
2022/12/20 07:13:38;;;;;;;10.35;6.20;;;;;;;13.23;34.06;100035.50;6036091;23;20249;-86
2022/12/20 07:16:04;;;;;;;14.32;6.63;;;;;;;13.05;34.39;100025.50;6037984;23;20042;-86
2022/12/20 07:18:30;;;;;;;10.38;6.30;;;;;;;13.15;34.54;100039.28;6038488;23;20010;-85
2022/12/20 07:21:00;;;;;;;10.40;6.03;;;;;;;13.04;34.07;100013.94;6035392;23;20030;-86
2022/12/20 07:23:26;;;;;;;9.65;5.65;;;;;;;13.19;34.07;100027.06;6013626;23;20408;-86
2022/12/20 07:25:55;;;;;;;9.57;6.15;;;;;;;13.21;34.10;100022.34;6036464;23;20018;-86
2022/12/20 07:28:24;;;;;;;14.10;6.80;;;;;;;13.20;33.93;100026.06;6032804;23;20003;-86
2022/12/20 07:30:50;;;;;;;10.48;6.20;;;;;;;13.15;34.29;100015.13;6034622;23;20007;-85
2022/12/20 07:33:15;;;;;;;12.52;6.45;;;;;;;13.13;34.40;100001.94;6035711;23;20002;-85
2022/12/20 07:35:42;;;;;;;12.98;6.35;;;;;;;13.15;34.41;100015.13;6035885;23;20034;-86
2022/12/20 07:38:14;;;;;;;12.15;6.88;;;;;;;13.13;34.22;100011.84;6035361;23;20006;-85
2022/12/20 07:40:46;;;;;;;10.73;6.45;;;;;;;13.19;34.13;100015.53;6036260;23;20098;-85
2022/12/20 07:43:11;;;;;;;10.68;5.95;;;;;;;13.20;34.30;100011.81;6035842;23;20033;-86
2022/12/20 07:45:37;;;;;;;10.95;6.15;;;;;;;13.20;34.04;100015.31;6035568;23;20030;-86
2022/12/20 07:48:06;;;;;;;10.05;6.20;;;;;;;13.19;34.26;100010.97;6034306;23;20041;-85
2022/12/20 07:50:34;;;;;;;10.57;6.20;;;;;;;13.23;34.31;100014.91;6035633;23;20007;-86
2022/12/20 07:53:00;;;;;;;12.45;6.45;;;;;;;13.18;34.29;100014.72;6036188;23;20854;-85
2022/12/20 07:55:26;;;;;;;10.43;7.00;;;;;;;13.09;34.13;100003.41;6036458;23;20042;-85
2022/12/20 07:58:01;;;;;;;13.35;7.00;;;;;;;13.21;34.19;100003.56;6040394;23;20018;-85
2022/12/20 08:00:30;;;;;;;12.40;6.53;;;;;;;13.20;34.06;99993.84;6017526;23;20007;-86
2022/12/20 08:03:11;;;;;;;12.57;6.53;;;;;;;13.19;34.26;99988.69;6064621;23;20010;-86
2022/12/20 08:05:39;;;;;;;10.93;6.88;;;;;;;13.17;34.13;99980.84;6045389;23;20006;-86
2022/12/20 08:08:05;;;;;;;11.30;6.38;;;;;;;13.14;34.26;99970.53;6043073;23;20014;-86
2022/12/20 08:10:31;;;;;;;11.30;6.50;;;;;;;13.15;34.41;99972.22;6065634;23;20440;-86
2022/12/20 08:12:56;;;;;;;14.45;6.95;;;;;;;13.07;34.40;99972.44;6041731;23;20059;-86
2022/12/20 08:15:22;;;;;;;11.07;5.95;;;;;;;13.20;34.41;99984.97;6042853;23;20340;-86
2022/12/20 08:17:49;;;;;;;10.75;6.15;;;;;;;13.20;34.20;99984.97;6041605;23;20011;-85
2022/12/20 08:20:14;;;;;;;11.18;6.78;;;;;;;13.23;34.15;99990.75;6041350;23;20447;-85
2022/12/20 08:22:44;;;;;;;11.45;6.53;;;;;;;13.20;34.11;99991.16;6066970;23;20005;-86
2022/12/20 08:25:10;;;;;;;10.52;6.05;;;;;;;13.21;34.17;99990.13;6042376;23;20475;-85
2022/12/20 08:27:36;;;;;;;11.65;6.30;;;;;;;13.18;33.96;99979.00;6042109;23;20034;-86
2022/12/20 08:30:02;;;;;;;11.38;6.80;;;;;;;13.16;34.13;99979.22;6064357;23;20485;-85
2022/12/20 08:32:28;;;;;;;10.65;6.65;;;;;;;13.16;34.13;99973.88;6065849;23;20080;-86
2022/12/20 08:34:54;;;;;;;11.68;6.93;;;;;;;13.20;33.86;99980.44;6041824;23;20066;-86
2022/12/20 08:37:28;;;;;;;11.18;6.78;;;;;;;13.23;34.10;99990.75;6042410;23;20026;-85
2022/12/20 08:39:54;;;;;;;13.90;7.35;;;;;;;13.22;33.77;99990.97;6064909;23;20451;-86
2022/12/20 08:42:19;;;;;;;13.30;6.72;;;;;;;13.18;33.87;99976.31;6065929;23;20011;-85
2022/12/20 08:44:45;;;;;;;13.38;7.07;;;;;;;13.19;33.70;99994.88;6041702;23;20014;-85
2022/12/20 08:47:13;;;;;;;11.05;6.43;;;;;;;13.17;33.85;99990.78;6064625;23;19999;-85
2022/12/20 08:49:38;;;;;;;11.63;6.57;;;;;;;13.16;34.23;99984.59;6065954;23;20340;-85
2022/12/20 08:52:04;;;;;;;12.38;6.53;;;;;;;13.23;34.02;99993.44;6043108;23;20007;-85
2022/12/20 08:54:30;;;;;;;13.00;7.00;;;;;;;13.19;34.22;99986.00;6066317;23;20399;-85
2022/12/20 08:56:55;;;;;;;12.98;7.38;;;;;;;13.14;33.94;99973.22;6059368;23;20026;-85
2022/12/20 08:59:21;;;;;;;11.57;6.30;;;;;;;13.23;34.18;99992.59;6037390;23;20038;-85
2022/12/20 09:01:47;;;;;;;11.80;7.15;;;;;;;13.19;34.19;99984.13;6038291;23;20014;-85
2022/12/20 09:04:14;;;;;;;10.90;6.18;;;;;;;13.07;34.20;99959.88;6038356;23;20031;-85
2022/12/20 09:06:43;;;;;;;12.07;6.20;;;;;;;13.11;33.79;99965.63;6013729;23;20010;-85
2022/12/20 09:09:08;;;;;;;12.15;7.20;;;;;;;13.23;33.95;99973.78;6014255;23;20002;-86
2022/12/20 09:11:34;;;;;;;12.05;6.43;;;;;;;13.21;34.13;99966.00;6036470;23;20086;-86
2022/12/20 09:13:59;;;;;;;12.13;6.72;;;;;;;13.21;33.88;99955.25;6037525;23;20010;-86
2022/12/20 09:16:27;;;;;;;11.43;6.35;;;;;;;13.20;34.30;99947.41;6036785;23;20492;-85
2022/12/20 09:18:54;;;;;;;12.32;6.40;;;;;;;13.17;33.85;99945.97;6013668;23;20389;-85
2022/12/20 09:21:19;;;;;;;10.35;6.32;;;;;;;13.10;34.23;99939.81;6037535;23;20018;-85
2022/12/20 09:23:45;;;;;;;10.18;6.15;;;;;;;13.11;34.19;99925.38;6037188;23;20090;-86
2022/12/20 09:26:12;;;;;;;11.65;6.63;;;;;;;13.25;34.14;99934.19;6014162;23;20094;-85
2022/12/20 09:28:40;;;;;;;13.52;6.80;;;;;;;13.19;34.13;99930.47;6012140;23;20014;-86
2022/12/20 09:31:06;;;;;;;11.45;6.80;;;;;;;13.16;34.02;99941.66;6037396;23;20097;-85
2022/12/20 09:33:33;;;;;;;11.35;6.40;;;;;;;13.14;34.14;99927.63;6037304;23;20359;-85
2022/12/20 09:35:59;;;;;;;11.80;6.28;;;;;;;13.23;34.14;99944.28;6011028;23;20032;-86
2022/12/20 09:38:24;;;;;;;11.43;6.30;;;;;;;13.19;34.36;99941.22;6013616;23;20003;-85
2022/12/20 09:40:56;;;;;;;13.05;7.07;;;;;;;13.19;34.29;99927.78;6011796;23;20014;-85
2022/12/20 09:43:24;;;;;;;11.45;6.60;;;;;;;13.14;34.18;99916.88;6037947;23;20018;-85
2022/12/20 09:45:55;;;;;;;11.50;6.68;;;;;;;13.21;34.12;99923.06;6033838;23;20113;-85
2022/12/20 09:48:33;;;;;;;12.68;7.00;;;;;;;13.17;33.83;99924.50;6013676;23;20011;-85
2022/12/20 09:51:07;;;;;;;13.82;7.22;;;;;;;13.25;34.29;99935.00;6037554;23;20017;-86
2022/12/20 09:53:50;;;;;;;14.90;7.35;;;;;;;13.23;34.04;99931.72;6035996;23;20019;-85
2022/12/20 09:56:37;;;;;;;13.10;7.30;;;;;;;13.22;34.03;99938.09;6072036;23;20014;-85
2022/12/20 09:59:05;;;;;;;10.68;6.72;;;;;;;13.21;34.12;99936.47;6064910;23;20740;-85
2022/12/20 10:01:33;;;;;;;12.25;6.57;;;;;;;13.21;33.93;99930.25;6018308;23;20062;-86
2022/12/20 10:04:01;;;;;;;12.85;7.10;;;;;;;13.24;33.92;99932.53;6039886;23;20351;-86
2022/12/20 10:07:05;;;;;;;12.38;6.38;;;;;;;13.23;33.92;99917.44;6018709;23;20006;-85
2022/12/20 10:10:02;;;;;;;10.43;6.22;;;;;;;13.28;34.17;99918.47;6007134;23;20447;-86
2022/12/20 10:12:49;;;;;;;12.25;6.82;;;;;;;13.25;33.95;99912.72;6005778;23;20011;-85
2022/12/20 10:15:37;;;;;;;11.88;6.80;;;;;;;13.23;34.40;99910.25;6079539;23;20026;-86
2022/12/20 10:18:24;;;;;;;11.57;7.03;;;;;;;13.28;34.29;99910.41;6041695;23;20041;-86
2022/12/20 10:20:59;;;;;;;11.68;6.75;;;;;;;13.24;33.93;99895.78;6089815;23;20014;-86
2022/12/20 10:23:34;;;;;;;12.02;6.22;;;;;;;13.26;34.01;99904.44;6019214;23;20009;-86
2022/12/20 10:26:00;;;;;;;14.43;6.85;;;;;;;13.25;34.18;99897.44;6093914;23;19998;-86
2022/12/20 10:28:30;;;;;;;14.68;7.47;;;;;;;13.21;34.05;99887.34;6068118;23;20013;-86
2022/12/20 10:31:07;;;;;;;13.25;7.05;;;;;;;13.19;34.43;99890.22;6042898;23;20006;-85
2022/12/20 10:33:32;;;;;;;13.60;7.05;;;;;;;13.17;34.43;99878.91;6042571;23;20010;-86
2022/12/20 10:36:18;;;;;;;13.80;7.60;;;;;;;13.29;34.17;99879.03;6042983;23;20037;-86
2022/12/20 10:38:49;;;;;;;14.25;7.15;;;;;;;13.19;33.94;99860.72;6042908;23;20010;-86
2022/12/20 10:41:20;;;;;;;12.73;7.28;;;;;;;13.19;34.22;99866.06;6040039;23;20006;-85
2022/12/20 10:43:53;;;;;;;13.15;7.10;;;;;;;13.24;34.10;99870.81;6041719;23;20167;-86
2022/12/20 10:46:19;;;;;;;13.50;6.72;;;;;;;13.13;34.27;99849.00;6019848;23;20014;-86
2022/12/20 10:48:46;;;;;;;11.10;6.68;;;;;;;13.20;34.11;99874.97;6043091;23;20017;-86
2022/12/20 10:51:13;;;;;;;14.13;8.00;;;;;;;13.23;34.16;99872.69;6018307;23;20006;-86
2022/12/20 10:53:56;;;;;;;12.65;7.22;;;;;;;13.25;33.92;99859.84;6042533;23;20009;-85
2022/12/20 10:56:26;;;;;;;14.45;7.55;;;;;;;13.19;34.07;99839.25;6033196;23;20014;-86
2022/12/20 10:58:58;;;;;;;11.95;6.72;;;;;;;13.28;33.83;99859.44;6038911;23;20381;-86
2022/12/20 11:01:30;;;;;;;13.77;7.88;;;;;;;13.26;33.83;99856.16;6038149;23;20519;-86
2022/12/20 11:04:04;;;;;;;13.30;7.40;;;;;;;13.18;34.04;99852.88;6037480;23;20352;-86
2022/12/20 11:06:49;;;;;;;11.82;7.15;;;;;;;13.23;34.03;99861.94;6038495;23;20021;-86
2022/12/20 11:09:18;;;;;;;13.32;7.38;;;;;;;13.27;34.07;99867.69;6037517;23;20022;-86
2022/12/20 11:12:05;;;;;;;13.80;7.05;;;;;;;13.25;34.12;99848.31;6061934;23;20002;-86
2022/12/20 11:14:33;;;;;;;13.90;7.68;;;;;;;13.25;33.95;99851.00;6037442;23;20304;-85
2022/12/20 11:16:59;;;;;;;14.27;7.72;;;;;;;13.26;34.23;99847.25;6036329;23;20026;-86
2022/12/20 11:20:04;;;;;;;13.98;7.20;;;;;;;13.28;34.14;99854.06;6014739;23;20014;-86
2022/12/20 11:22:36;;;;;;;12.77;6.63;;;;;;;13.23;34.08;99856.56;6046508;23;20090;-86
2022/12/20 11:25:19;;;;;;;12.55;7.25;;;;;;;13.23;34.29;99856.56;6061400;23;20010;-86
2022/12/20 11:28:06;;;;;;;13.18;7.38;;;;;;;13.26;34.25;99856.16;6059823;23;20076;-86
2022/12/20 11:31:10;;;;;;;15.50;7.82;;;;;;;13.27;33.93;99856.97;6061319;23;20076;-85
2022/12/20 11:33:42;;;;;;;13.02;7.60;;;;;;;13.27;34.30;99854.28;6044740;23;20485;-86
2022/12/20 11:36:11;;;;;;;14.23;6.90;;;;;;;13.28;34.18;99853.22;6038140;23;20058;-86